createdAt,value
2022-08-03T00:02:42.517Z,15.30
2022-08-03T00:12:45.464Z,15.17
2022-08-03T00:22:49.089Z,15.07
2022-08-03T00:32:52.868Z,14.99
2022-08-03T00:42:59.576Z,14.93
2022-08-03T00:53:18.568Z,14.91
2022-08-03T01:03:21.997Z,14.88
2022-08-03T01:14:01.946Z,14.96
2022-08-03T01:24:56.469Z,15.03
2022-08-03T01:35:11.850Z,15.12
2022-08-03T01:45:19.071Z,15.16
2022-08-03T01:55:24.211Z,15.27
2022-08-03T02:05:28.387Z,15.33
2022-08-03T02:15:34.309Z,15.39
2022-08-03T02:25:53.586Z,15.35
2022-08-03T02:35:58.286Z,15.35
2022-08-03T02:46:01.264Z,15.33
2022-08-03T02:56:05.632Z,15.30
2022-08-03T03:06:09.559Z,15.22
2022-08-03T03:16:14.193Z,15.11
2022-08-03T03:26:17.898Z,14.95
2022-08-03T03:36:20.761Z,14.83
2022-08-03T03:46:23.707Z,14.69
2022-08-03T03:56:27.449Z,14.63
2022-08-03T04:06:48.638Z,14.56
2022-08-03T04:16:57.094Z,14.59
2022-08-03T04:27:03.002Z,14.63
2022-08-03T04:37:12.950Z,14.77
2022-08-03T04:47:16.832Z,15.07
2022-08-03T04:57:23.110Z,15.71
2022-08-03T05:07:26.274Z,16.22
2022-08-03T05:17:38.934Z,16.50
2022-08-03T05:27:42.085Z,16.76
2022-08-03T05:37:54.690Z,17.05
2022-08-03T05:48:03.886Z,17.43
2022-08-03T05:58:07.088Z,17.90
2022-08-03T06:08:09.968Z,18.50
2022-08-03T06:21:59.006Z,19.02
2022-08-03T06:32:02.575Z,19.37
2022-08-03T06:42:05.790Z,19.86
2022-08-03T06:52:12.716Z,20.55
2022-08-03T07:02:35.414Z,21.66
2022-08-03T07:12:38.983Z,22.13
2022-08-03T07:22:59.081Z,23.14
2022-08-03T07:33:01.798Z,24.57
2022-08-03T07:43:05.430Z,25.47
2022-08-03T07:53:08.308Z,27.40
2022-08-03T08:03:11.869Z,29.16
2022-08-03T08:13:15.071Z,30.23
2022-08-03T08:23:42.531Z,30.45
2022-08-03T08:34:03.638Z,30.54
2022-08-03T08:44:08.576Z,30.20
2022-08-03T08:54:11.924Z,29.98
2022-08-03T09:04:14.741Z,29.58
2022-08-03T09:14:36.648Z,29.30
2022-08-03T09:25:22.613Z,29.27
2022-08-03T09:35:51.659Z,29.57
2022-08-03T09:45:51.217Z,29.72
2022-08-03T09:56:33.433Z,29.17
2022-08-03T10:06:22.694Z,28.75
2022-08-03T10:16:38.826Z,28.54
2022-08-03T10:26:49.489Z,28.31
2022-08-03T10:36:57.371Z,28.25
2022-08-03T10:47:01.184Z,28.81
2022-08-03T10:57:22.429Z,29.42
2022-08-03T11:07:26.120Z,30.03
2022-08-03T11:17:29.076Z,30.66
2022-08-03T11:27:35.389Z,31.24
2022-08-03T11:38:01.436Z,31.71
2022-08-03T11:48:16.403Z,32.08
2022-08-03T11:59:00.956Z,32.21
2022-08-03T12:08:44.737Z,32.03
2022-08-03T12:19:08.473Z,31.60
2022-08-03T12:29:22.546Z,30.94
2022-08-03T12:39:27.842Z,30.71
2022-08-03T12:49:45.678Z,30.87
2022-08-03T12:59:52.878Z,30.76
2022-08-03T13:09:57.018Z,30.61
2022-08-03T13:19:59.665Z,30.32
2022-08-03T13:30:02.549Z,30.00
2022-08-03T13:40:07.346Z,29.50
2022-08-03T13:50:10.012Z,29.22
2022-08-03T14:00:13.209Z,29.05
2022-08-03T14:10:29.481Z,29.25
2022-08-03T14:20:38.125Z,29.57
2022-08-03T14:30:49.633Z,29.98
2022-08-03T14:40:53.413Z,30.53
2022-08-03T14:50:57.019Z,31.00
2022-08-03T15:00:59.795Z,31.59
2022-08-03T15:11:02.571Z,31.73
2022-08-03T15:21:07.538Z,32.19
2022-08-03T15:31:24.376Z,32.52
2022-08-03T15:41:27.016Z,32.60
2022-08-03T15:51:30.184Z,32.56
2022-08-03T16:01:33.231Z,32.26
2022-08-03T16:11:36.363Z,31.99
2022-08-03T16:21:48.895Z,31.93
2022-08-03T16:31:53.207Z,31.93
2022-08-03T16:42:01.022Z,31.56
2022-08-03T16:52:07.128Z,30.84
2022-08-03T17:02:26.166Z,29.99
2022-08-03T17:12:29.723Z,29.21
2022-08-03T17:22:37.891Z,28.57
2022-08-03T17:32:52.706Z,27.84
2022-08-03T17:43:01.226Z,27.17
2022-08-03T17:53:29.583Z,26.51
2022-08-03T18:03:57.889Z,25.89
2022-08-03T18:14:19.934Z,25.28
2022-08-03T18:24:29.172Z,24.71
2022-08-03T18:34:34.853Z,24.12
2022-08-03T18:44:53.849Z,23.61
2022-08-03T18:55:20.683Z,23.03
2022-08-03T19:05:56.227Z,22.49
2022-08-03T19:15:57.289Z,22.08
2022-08-03T19:26:00.870Z,21.69
2022-08-03T19:36:07.334Z,21.34
2022-08-03T19:46:14.220Z,21.01
2022-08-03T19:56:23.768Z,20.72
2022-08-03T20:10:12.594Z,20.34
2022-08-03T20:20:32.968Z,20.04
2022-08-03T20:30:36.500Z,19.81
2022-08-03T20:40:40.080Z,19.68
2022-08-03T20:50:44.141Z,19.50
2022-08-03T21:00:49.141Z,19.34
2022-08-03T21:10:57.737Z,19.18
2022-08-03T21:21:03.812Z,19.06
2022-08-03T21:31:07.140Z,18.86
2022-08-03T21:41:10.384Z,18.66
2022-08-03T21:51:16.936Z,18.45
2022-08-03T22:10:12.006Z,18.19
2022-08-03T22:20:15.838Z,18.00
2022-08-03T22:39:25.521Z,17.70
2022-08-03T22:49:29.691Z,17.60
2022-08-03T22:59:41.330Z,17.49
2022-08-03T23:09:47.496Z,17.37
2022-08-03T23:19:54.128Z,17.26
2022-08-03T23:29:58.919Z,17.16
2022-08-03T23:40:03.687Z,17.09
2022-08-03T23:50:06.856Z,16.98
